sensor_id;sensor_type;location;lat;lon;timestamp;P1;durP1;ratioP1;P2;durP2;ratioP2
68507;SDS011;55510;49.560;19.090;2022-09-27T00:04:58;22.55;;;10.93;;
68507;SDS011;55510;49.560;19.090;2022-09-27T00:09:59;17.53;;;10.13;;
68507;SDS011;55510;49.560;19.090;2022-09-27T00:14:59;17.83;;;9.47;;
68507;SDS011;55510;49.560;19.090;2022-09-27T00:20:02;16.65;;;9.55;;
68507;SDS011;55510;49.560;19.090;2022-09-27T00:25:04;21.77;;;12.23;;
68507;SDS011;55510;49.560;19.090;2022-09-27T00:30:06;13.83;;;7.80;;
68507;SDS011;55510;49.560;19.090;2022-09-27T00:35:08;20.70;;;12.10;;
68507;SDS011;55510;49.560;19.090;2022-09-27T00:40:09;19.77;;;12.23;;
68507;SDS011;55510;49.560;19.090;2022-09-27T00:45:13;18.55;;;10.43;;
68507;SDS011;55510;49.560;19.090;2022-09-27T00:55:22;17.17;;;8.75;;
68507;SDS011;55510;49.560;19.090;2022-09-27T01:00:27;16.38;;;8.02;;
68507;SDS011;55510;49.560;19.090;2022-09-27T01:05:28;17.70;;;8.33;;
68507;SDS011;55510;49.560;19.090;2022-09-27T01:10:31;19.02;;;8.25;;
68507;SDS011;55510;49.560;19.090;2022-09-27T01:47:22;11.60;;;5.97;;
68507;SDS011;55510;49.560;19.090;2022-09-27T01:52:28;12.82;;;5.78;;
68507;SDS011;55510;49.560;19.090;2022-09-27T01:57:41;12.50;;;6.10;;
68507;SDS011;55510;49.560;19.090;2022-09-27T02:08:05;13.35;;;7.10;;
68507;SDS011;55510;49.560;19.090;2022-09-27T02:13:16;16.37;;;7.70;;
68507;SDS011;55510;49.560;19.090;2022-09-27T02:18:31;12.45;;;6.05;;
68507;SDS011;55510;49.560;19.090;2022-09-27T02:23:48;10.88;;;5.25;;
68507;SDS011;55510;49.560;19.090;2022-09-27T02:29:04;14.57;;;7.27;;
68507;SDS011;55510;49.560;19.090;2022-09-27T02:34:11;16.83;;;8.68;;
68507;SDS011;55510;49.560;19.090;2022-09-27T02:39:18;13.40;;;7.40;;
68507;SDS011;55510;49.560;19.090;2022-09-27T02:44:19;14.30;;;6.30;;
68507;SDS011;55510;49.560;19.090;2022-09-27T03:05:20;11.70;;;5.20;;
68507;SDS011;55510;49.560;19.090;2022-09-27T03:10:24;12.83;;;6.43;;
68507;SDS011;55510;49.560;19.090;2022-09-27T03:15:28;15.57;;;7.37;;
68507;SDS011;55510;49.560;19.090;2022-09-27T03:20:29;10.45;;;5.90;;
68507;SDS011;55510;49.560;19.090;2022-09-27T03:25:30;11.30;;;6.47;;
68507;SDS011;55510;49.560;19.090;2022-09-27T03:30:31;10.32;;;5.57;;
68507;SDS011;55510;49.560;19.090;2022-09-27T03:35:32;9.90;;;4.80;;
68507;SDS011;55510;49.560;19.090;2022-09-27T03:40:32;8.88;;;4.30;;
68507;SDS011;55510;49.560;19.090;2022-09-27T03:45:33;10.73;;;5.00;;
68507;SDS011;55510;49.560;19.090;2022-09-27T03:50:34;9.30;;;4.63;;
68507;SDS011;55510;49.560;19.090;2022-09-27T03:55:35;12.70;;;6.18;;
68507;SDS011;55510;49.560;19.090;2022-09-27T04:00:36;13.90;;;7.87;;
68507;SDS011;55510;49.560;19.090;2022-09-27T04:05:36;18.10;;;10.13;;
68507;SDS011;55510;49.560;19.090;2022-09-27T04:10:37;14.73;;;7.63;;
68507;SDS011;55510;49.560;19.090;2022-09-27T04:15:38;13.13;;;6.03;;
68507;SDS011;55510;49.560;19.090;2022-09-27T04:20:39;12.60;;;6.47;;
68507;SDS011;55510;49.560;19.090;2022-09-27T04:25:39;15.03;;;7.03;;
68507;SDS011;55510;49.560;19.090;2022-09-27T04:30:40;13.25;;;6.50;;
68507;SDS011;55510;49.560;19.090;2022-09-27T04:35:41;10.63;;;5.53;;
68507;SDS011;55510;49.560;19.090;2022-09-27T04:41:01;13.32;;;6.22;;
68507;SDS011;55510;49.560;19.090;2022-09-27T04:46:02;12.17;;;6.33;;
68507;SDS011;55510;49.560;19.090;2022-09-27T04:51:03;11.35;;;5.72;;
68507;SDS011;55510;49.560;19.090;2022-09-27T04:56:04;12.10;;;5.50;;
68507;SDS011;55510;49.560;19.090;2022-09-27T05:01:06;14.80;;;8.25;;
68507;SDS011;55510;49.560;19.090;2022-09-27T05:06:06;16.90;;;10.25;;
68507;SDS011;55510;49.560;19.090;2022-09-27T05:11:07;16.07;;;9.60;;
68507;SDS011;55510;49.560;19.090;2022-09-27T05:16:08;23.03;;;11.57;;
68507;SDS011;55510;49.560;19.090;2022-09-27T05:21:08;14.03;;;8.47;;
68507;SDS011;55510;49.560;19.090;2022-09-27T05:26:10;12.27;;;6.90;;
68507;SDS011;55510;49.560;19.090;2022-09-27T05:31:11;10.88;;;7.00;;
68507;SDS011;55510;49.560;19.090;2022-09-27T05:36:13;23.00;;;9.30;;
68507;SDS011;55510;49.560;19.090;2022-09-27T05:41:14;35.10;;;15.02;;
68507;SDS011;55510;49.560;19.090;2022-09-27T05:46:15;25.87;;;14.10;;
68507;SDS011;55510;49.560;19.090;2022-09-27T05:51:16;21.60;;;11.45;;
68507;SDS011;55510;49.560;19.090;2022-09-27T05:56:18;20.33;;;11.35;;
68507;SDS011;55510;49.560;19.090;2022-09-27T06:01:19;15.93;;;8.03;;
68507;SDS011;55510;49.560;19.090;2022-09-27T06:06:20;15.43;;;8.47;;
68507;SDS011;55510;49.560;19.090;2022-09-27T06:11:23;17.27;;;8.80;;
68507;SDS011;55510;49.560;19.090;2022-09-27T06:16:26;19.00;;;9.70;;
68507;SDS011;55510;49.560;19.090;2022-09-27T06:21:27;18.02;;;10.10;;
68507;SDS011;55510;49.560;19.090;2022-09-27T06:26:28;13.80;;;6.83;;
68507;SDS011;55510;49.560;19.090;2022-09-27T06:31:30;18.17;;;9.52;;
68507;SDS011;55510;49.560;19.090;2022-09-27T06:36:31;17.47;;;9.40;;
68507;SDS011;55510;49.560;19.090;2022-09-27T06:41:32;23.05;;;11.85;;
68507;SDS011;55510;49.560;19.090;2022-09-27T06:46:33;16.10;;;8.98;;
68507;SDS011;55510;49.560;19.090;2022-09-27T06:51:34;16.10;;;7.87;;
68507;SDS011;55510;49.560;19.090;2022-09-27T06:56:35;13.02;;;7.20;;
68507;SDS011;55510;49.560;19.090;2022-09-27T07:01:36;11.47;;;6.20;;
68507;SDS011;55510;49.560;19.090;2022-09-27T07:06:37;11.43;;;6.47;;
68507;SDS011;55510;49.560;19.090;2022-09-27T07:11:37;13.35;;;7.60;;
68507;SDS011;55510;49.560;19.090;2022-09-27T07:16:40;12.80;;;7.00;;
68507;SDS011;55510;49.560;19.090;2022-09-27T07:21:41;15.30;;;8.88;;
68507;SDS011;55510;49.560;19.090;2022-09-27T07:26:42;15.87;;;9.13;;
68507;SDS011;55510;49.560;19.090;2022-09-27T07:31:42;22.90;;;11.73;;
68507;SDS011;55510;49.560;19.090;2022-09-27T07:36:44;38.40;;;17.00;;
68507;SDS011;55510;49.560;19.090;2022-09-27T07:41:44;20.37;;;9.73;;
68507;SDS011;55510;49.560;19.090;2022-09-27T07:46:46;10.65;;;5.80;;
68507;SDS011;55510;49.560;19.090;2022-09-27T07:51:46;8.75;;;4.47;;
68507;SDS011;55510;49.560;19.090;2022-09-27T07:56:47;7.33;;;4.00;;
68507;SDS011;55510;49.560;19.090;2022-09-27T08:01:48;8.27;;;3.90;;
68507;SDS011;55510;49.560;19.090;2022-09-27T08:06:48;8.07;;;4.25;;
68507;SDS011;55510;49.560;19.090;2022-09-27T08:11:49;7.50;;;4.53;;
68507;SDS011;55510;49.560;19.090;2022-09-27T08:16:50;14.57;;;6.82;;
68507;SDS011;55510;49.560;19.090;2022-09-27T08:21:51;10.77;;;5.30;;
68507;SDS011;55510;49.560;19.090;2022-09-27T08:26:54;12.10;;;6.82;;
68507;SDS011;55510;49.560;19.090;2022-09-27T08:31:55;23.87;;;11.27;;
68507;SDS011;55510;49.560;19.090;2022-09-27T08:36:55;20.02;;;8.85;;
68507;SDS011;55510;49.560;19.090;2022-09-27T08:47:32;10.25;;;5.63;;
68507;SDS011;55510;49.560;19.090;2022-09-27T08:52:38;5.27;;;3.07;;
68507;SDS011;55510;49.560;19.090;2022-09-27T08:57:43;5.25;;;3.30;;
68507;SDS011;55510;49.560;19.090;2022-09-27T09:02:53;5.88;;;3.65;;
68507;SDS011;55510;49.560;19.090;2022-09-27T09:13:04;7.73;;;3.57;;
68507;SDS011;55510;49.560;19.090;2022-09-27T09:34:50;5.78;;;3.53;;
68507;SDS011;55510;49.560;19.090;2022-09-27T09:39:58;10.90;;;3.17;;
68507;SDS011;55510;49.560;19.090;2022-09-27T09:45:29;5.70;;;3.53;;
68507;SDS011;55510;49.560;19.090;2022-09-27T09:50:35;4.80;;;2.83;;
68507;SDS011;55510;49.560;19.090;2022-09-27T09:55:42;4.88;;;3.10;;
68507;SDS011;55510;49.560;19.090;2022-09-27T10:00:50;5.30;;;3.20;;
68507;SDS011;55510;49.560;19.090;2022-09-27T10:05:55;5.17;;;3.33;;
68507;SDS011;55510;49.560;19.090;2022-09-27T10:10:56;5.32;;;3.08;;
68507;SDS011;55510;49.560;19.090;2022-09-27T10:16:04;5.70;;;3.50;;
68507;SDS011;55510;49.560;19.090;2022-09-27T10:26:31;5.73;;;3.20;;
68507;SDS011;55510;49.560;19.090;2022-09-27T10:31:35;5.22;;;2.30;;
68507;SDS011;55510;49.560;19.090;2022-09-27T10:36:38;3.97;;;2.13;;
68507;SDS011;55510;49.560;19.090;2022-09-27T10:41:39;4.67;;;2.47;;
68507;SDS011;55510;49.560;19.090;2022-09-27T10:46:43;5.80;;;2.83;;
68507;SDS011;55510;49.560;19.090;2022-09-27T10:51:51;6.13;;;2.78;;
68507;SDS011;55510;49.560;19.090;2022-09-27T10:56:55;6.80;;;3.40;;
68507;SDS011;55510;49.560;19.090;2022-09-27T11:01:59;5.80;;;2.95;;
68507;SDS011;55510;49.560;19.090;2022-09-27T11:07:10;6.30;;;3.10;;
68507;SDS011;55510;49.560;19.090;2022-09-27T11:12:17;8.17;;;4.00;;
68507;SDS011;55510;49.560;19.090;2022-09-27T11:17:29;7.07;;;3.60;;
68507;SDS011;55510;49.560;19.090;2022-09-27T11:28:21;6.43;;;2.75;;
68507;SDS011;55510;49.560;19.090;2022-09-27T11:49:57;8.20;;;4.20;;
68507;SDS011;55510;49.560;19.090;2022-09-27T12:05:58;6.60;;;2.97;;
68507;SDS011;55510;49.560;19.090;2022-09-27T12:16:36;7.43;;;4.30;;
68507;SDS011;55510;49.560;19.090;2022-09-27T12:21:43;9.38;;;4.72;;
68507;SDS011;55510;49.560;19.090;2022-09-27T12:26:44;14.10;;;6.47;;
68507;SDS011;55510;49.560;19.090;2022-09-27T12:42:44;7.57;;;4.23;;
68507;SDS011;55510;49.560;19.090;2022-09-27T12:53:13;8.70;;;4.20;;
68507;SDS011;55510;49.560;19.090;2022-09-27T13:19:53;9.00;;;4.33;;
68507;SDS011;55510;49.560;19.090;2022-09-27T13:24:54;9.68;;;4.90;;
68507;SDS011;55510;49.560;19.090;2022-09-27T13:30:42;8.43;;;5.17;;
68507;SDS011;55510;49.560;19.090;2022-09-27T13:35:27;10.00;;;5.60;;
68507;SDS011;55510;49.560;19.090;2022-09-27T13:40:32;10.97;;;5.80;;
68507;SDS011;55510;49.560;19.090;2022-09-27T14:01:52;5.30;;;2.63;;
68507;SDS011;55510;49.560;19.090;2022-09-27T14:06:58;5.82;;;2.08;;
68507;SDS011;55510;49.560;19.090;2022-09-27T14:12:08;6.63;;;2.30;;
68507;SDS011;55510;49.560;19.090;2022-09-27T14:17:12;5.63;;;2.13;;
68507;SDS011;55510;49.560;19.090;2022-09-27T14:22:15;6.30;;;3.83;;
68507;SDS011;55510;49.560;19.090;2022-09-27T14:32:23;3.25;;;1.30;;
68507;SDS011;55510;49.560;19.090;2022-09-27T14:37:26;4.95;;;1.40;;
68507;SDS011;55510;49.560;19.090;2022-09-27T14:42:28;5.07;;;1.83;;
68507;SDS011;55510;49.560;19.090;2022-09-27T14:47:35;10.20;;;5.63;;
68507;SDS011;55510;49.560;19.090;2022-09-27T14:52:44;7.05;;;2.75;;
68507;SDS011;55510;49.560;19.090;2022-09-27T14:57:49;6.40;;;2.83;;
68507;SDS011;55510;49.560;19.090;2022-09-27T15:02:53;12.13;;;4.60;;
68507;SDS011;55510;49.560;19.090;2022-09-27T15:07:55;14.32;;;5.53;;
68507;SDS011;55510;49.560;19.090;2022-09-27T15:13:00;10.98;;;4.97;;
68507;SDS011;55510;49.560;19.090;2022-09-27T15:23:34;8.18;;;3.35;;
68507;SDS011;55510;49.560;19.090;2022-09-27T15:28:40;9.93;;;4.00;;
68507;SDS011;55510;49.560;19.090;2022-09-27T15:33:51;8.43;;;4.47;;
68507;SDS011;55510;49.560;19.090;2022-09-27T15:39:05;9.83;;;4.37;;
68507;SDS011;55510;49.560;19.090;2022-09-27T15:44:33;12.20;;;5.90;;
68507;SDS011;55510;49.560;19.090;2022-09-27T15:49:37;12.88;;;5.13;;
68507;SDS011;55510;49.560;19.090;2022-09-27T15:54:38;13.73;;;6.40;;
68507;SDS011;55510;49.560;19.090;2022-09-27T15:59:39;15.57;;;7.90;;
68507;SDS011;55510;49.560;19.090;2022-09-27T16:04:42;19.48;;;8.93;;
68507;SDS011;55510;49.560;19.090;2022-09-27T16:09:43;25.27;;;12.65;;
68507;SDS011;55510;49.560;19.090;2022-09-27T16:14:44;25.73;;;15.10;;
68507;SDS011;55510;49.560;19.090;2022-09-27T16:19:44;27.70;;;14.32;;
68507;SDS011;55510;49.560;19.090;2022-09-27T16:24:45;27.37;;;13.97;;
68507;SDS011;55510;49.560;19.090;2022-09-27T16:29:49;27.20;;;12.90;;
68507;SDS011;55510;49.560;19.090;2022-09-27T16:34:50;13.03;;;6.73;;
68507;SDS011;55510;49.560;19.090;2022-09-27T16:39:51;10.48;;;4.72;;
68507;SDS011;55510;49.560;19.090;2022-09-27T16:44:52;23.00;;;11.50;;
68507;SDS011;55510;49.560;19.090;2022-09-27T16:49:53;53.63;;;25.85;;
68507;SDS011;55510;49.560;19.090;2022-09-27T16:55:13;38.03;;;20.85;;
68507;SDS011;55510;49.560;19.090;2022-09-27T17:00:17;34.37;;;18.93;;
68507;SDS011;55510;49.560;19.090;2022-09-27T17:05:18;37.47;;;20.23;;
68507;SDS011;55510;49.560;19.090;2022-09-27T17:10:20;27.67;;;15.23;;
68507;SDS011;55510;49.560;19.090;2022-09-27T17:15:21;29.07;;;15.47;;
68507;SDS011;55510;49.560;19.090;2022-09-27T17:20:22;28.85;;;14.98;;
68507;SDS011;55510;49.560;19.090;2022-09-27T17:25:23;27.83;;;15.27;;
68507;SDS011;55510;49.560;19.090;2022-09-27T17:30:24;31.90;;;17.10;;
68507;SDS011;55510;49.560;19.090;2022-09-27T17:35:25;27.53;;;15.90;;
68507;SDS011;55510;49.560;19.090;2022-09-27T17:40:26;29.57;;;15.87;;
68507;SDS011;55510;49.560;19.090;2022-09-27T17:45:27;27.40;;;14.20;;
68507;SDS011;55510;49.560;19.090;2022-09-27T17:50:27;33.85;;;18.63;;
68507;SDS011;55510;49.560;19.090;2022-09-27T17:55:28;38.47;;;20.80;;
68507;SDS011;55510;49.560;19.090;2022-09-27T18:00:29;34.03;;;20.92;;
68507;SDS011;55510;49.560;19.090;2022-09-27T18:05:30;38.20;;;20.65;;
68507;SDS011;55510;49.560;19.090;2022-09-27T18:10:31;32.80;;;19.30;;
68507;SDS011;55510;49.560;19.090;2022-09-27T18:15:32;35.03;;;19.08;;
68507;SDS011;55510;49.560;19.090;2022-09-27T18:20:36;44.43;;;23.73;;
68507;SDS011;55510;49.560;19.090;2022-09-27T18:25:37;48.97;;;29.00;;
68507;SDS011;55510;49.560;19.090;2022-09-27T18:30:39;49.87;;;28.80;;
68507;SDS011;55510;49.560;19.090;2022-09-27T18:35:42;44.90;;;26.20;;
68507;SDS011;55510;49.560;19.090;2022-09-27T18:40:43;48.97;;;26.70;;
68507;SDS011;55510;49.560;19.090;2022-09-27T18:45:44;44.83;;;25.97;;
68507;SDS011;55510;49.560;19.090;2022-09-27T18:50:45;43.38;;;24.05;;
68507;SDS011;55510;49.560;19.090;2022-09-27T18:55:46;42.77;;;23.60;;
68507;SDS011;55510;49.560;19.090;2022-09-27T19:00:46;41.70;;;24.13;;
68507;SDS011;55510;49.560;19.090;2022-09-27T19:05:54;38.08;;;21.40;;
68507;SDS011;55510;49.560;19.090;2022-09-27T19:11:03;44.37;;;25.27;;
68507;SDS011;55510;49.560;19.090;2022-09-27T19:16:05;70.00;;;38.67;;
68507;SDS011;55510;49.560;19.090;2022-09-27T19:21:07;74.77;;;41.90;;
68507;SDS011;55510;49.560;19.090;2022-09-27T19:26:11;55.17;;;31.53;;
68507;SDS011;55510;49.560;19.090;2022-09-27T19:31:20;47.60;;;25.25;;
68507;SDS011;55510;49.560;19.090;2022-09-27T19:36:23;48.47;;;27.50;;
68507;SDS011;55510;49.560;19.090;2022-09-27T19:41:24;45.13;;;24.20;;
68507;SDS011;55510;49.560;19.090;2022-09-27T19:46:25;44.38;;;22.90;;
68507;SDS011;55510;49.560;19.090;2022-09-27T19:51:26;47.23;;;24.13;;
68507;SDS011;55510;49.560;19.090;2022-09-27T19:56:27;42.42;;;23.15;;
68507;SDS011;55510;49.560;19.090;2022-09-27T20:01:28;33.60;;;18.13;;
68507;SDS011;55510;49.560;19.090;2022-09-27T20:06:29;26.35;;;13.45;;
68507;SDS011;55510;49.560;19.090;2022-09-27T20:11:31;19.13;;;10.77;;
68507;SDS011;55510;49.560;19.090;2022-09-27T20:16:33;19.50;;;8.87;;
68507;SDS011;55510;49.560;19.090;2022-09-27T20:21:34;21.83;;;11.75;;
68507;SDS011;55510;49.560;19.090;2022-09-27T20:26:34;23.80;;;12.83;;
68507;SDS011;55510;49.560;19.090;2022-09-27T20:31:37;26.77;;;13.75;;
68507;SDS011;55510;49.560;19.090;2022-09-27T20:36:41;22.80;;;11.77;;
68507;SDS011;55510;49.560;19.090;2022-09-27T20:41:44;23.35;;;10.45;;
68507;SDS011;55510;49.560;19.090;2022-09-27T20:46:46;26.02;;;12.70;;
68507;SDS011;55510;49.560;19.090;2022-09-27T20:51:47;26.10;;;14.03;;
68507;SDS011;55510;49.560;19.090;2022-09-27T20:56:48;27.33;;;16.23;;
68507;SDS011;55510;49.560;19.090;2022-09-27T21:01:49;25.20;;;13.67;;
68507;SDS011;55510;49.560;19.090;2022-09-27T21:06:51;26.17;;;14.23;;
68507;SDS011;55510;49.560;19.090;2022-09-27T21:11:52;26.80;;;15.33;;
68507;SDS011;55510;49.560;19.090;2022-09-27T21:16:53;28.00;;;15.27;;
68507;SDS011;55510;49.560;19.090;2022-09-27T21:21:53;26.20;;;14.50;;
68507;SDS011;55510;49.560;19.090;2022-09-27T21:26:55;25.57;;;13.77;;
68507;SDS011;55510;49.560;19.090;2022-09-27T21:31:57;33.73;;;16.40;;
68507;SDS011;55510;49.560;19.090;2022-09-27T21:36:58;35.83;;;17.63;;
68507;SDS011;55510;49.560;19.090;2022-09-27T21:41:58;32.95;;;16.38;;
68507;SDS011;55510;49.560;19.090;2022-09-27T21:46:59;26.03;;;13.60;;
68507;SDS011;55510;49.560;19.090;2022-09-27T21:52:03;23.48;;;12.40;;
68507;SDS011;55510;49.560;19.090;2022-09-27T21:57:03;23.63;;;13.20;;
68507;SDS011;55510;49.560;19.090;2022-09-27T22:02:04;25.50;;;13.30;;
68507;SDS011;55510;49.560;19.090;2022-09-27T22:07:05;19.83;;;11.45;;
68507;SDS011;55510;49.560;19.090;2022-09-27T22:12:05;20.40;;;11.53;;
68507;SDS011;55510;49.560;19.090;2022-09-27T22:17:06;20.73;;;8.93;;
68507;SDS011;55510;49.560;19.090;2022-09-27T22:22:07;20.13;;;8.90;;
68507;SDS011;55510;49.560;19.090;2022-09-27T22:27:07;20.00;;;10.68;;
68507;SDS011;55510;49.560;19.090;2022-09-27T22:32:08;21.43;;;10.93;;
68507;SDS011;55510;49.560;19.090;2022-09-27T22:37:09;26.53;;;12.27;;
68507;SDS011;55510;49.560;19.090;2022-09-27T22:42:09;20.48;;;10.75;;
68507;SDS011;55510;49.560;19.090;2022-09-27T22:47:10;23.47;;;10.87;;
68507;SDS011;55510;49.560;19.090;2022-09-27T22:52:11;23.80;;;11.47;;
68507;SDS011;55510;49.560;19.090;2022-09-27T22:57:11;20.05;;;10.30;;
68507;SDS011;55510;49.560;19.090;2022-09-27T23:02:13;20.77;;;11.10;;
68507;SDS011;55510;49.560;19.090;2022-09-27T23:07:13;19.85;;;10.13;;
68507;SDS011;55510;49.560;19.090;2022-09-27T23:12:14;18.47;;;9.40;;
68507;SDS011;55510;49.560;19.090;2022-09-27T23:17:15;14.13;;;6.57;;
68507;SDS011;55510;49.560;19.090;2022-09-27T23:22:18;12.57;;;5.57;;
68507;SDS011;55510;49.560;19.090;2022-09-27T23:27:19;12.60;;;6.07;;
68507;SDS011;55510;49.560;19.090;2022-09-27T23:32:42;12.73;;;6.05;;
68507;SDS011;55510;49.560;19.090;2022-09-27T23:37:45;13.80;;;7.18;;
68507;SDS011;55510;49.560;19.090;2022-09-27T23:42:45;12.23;;;6.50;;
68507;SDS011;55510;49.560;19.090;2022-09-27T23:47:46;16.07;;;8.10;;
68507;SDS011;55510;49.560;19.090;2022-09-27T23:52:46;21.20;;;10.30;;
68507;SDS011;55510;49.560;19.090;2022-09-27T23:57:47;18.23;;;8.35;;
